Time;durP1;ratioP1;P1;durP2;ratioP2;P2;SDS_P1;SDS_P2;PMS_P1;PMS_P2;Temp;Humidity;BMP_temperature;BMP_pressure;BME280_temperature;BME280_humidity;BME280_pressure;Samples;Min_cycle;Max_cycle;Signal;HPM_P1;HPM_P2
2022/10/10 00:00:50;;;;;;;8.35;4.63;;;;;;;;;;4973179;28;20031;-76
2022/10/10 00:03:16;;;;;;;10.70;4.05;;;;;;;;;;4972594;28;20026;-77
2022/10/10 00:05:42;;;;;;;8.45;4.72;;;;;;;;;;4972851;28;20605;-76
2022/10/10 00:08:08;;;;;;;8.43;3.83;;;;;;;;;;4972598;28;20042;-77
2022/10/10 00:10:34;;;;;;;13.43;3.90;;;;;;;;;;4955950;28;20022;-77
2022/10/10 00:13:01;;;;;;;9.82;4.53;;;;;;;;;;4973076;28;20392;-76
2022/10/10 00:15:27;;;;;;;9.10;4.20;;;;;;;;;;4973089;28;20027;-76
2022/10/10 00:17:53;;;;;;;11.43;4.18;;;;;;;;;;4972646;28;20015;-74
2022/10/10 00:20:20;;;;;;;10.50;4.40;;;;;;;;;;4955723;28;20054;-75
2022/10/10 00:22:46;;;;;;;6.75;3.67;;;;;;;;;;4973036;28;20081;-75
2022/10/10 00:25:12;;;;;;;6.65;3.53;;;;;;;;;;4972581;28;20023;-77
2022/10/10 00:27:38;;;;;;;8.80;3.90;;;;;;;;;;4972250;28;20026;-76
2022/10/10 00:30:05;;;;;;;8.50;3.20;;;;;;;;;;4971145;28;20389;-78
2022/10/10 00:32:31;;;;;;;8.30;3.28;;;;;;;;;;4973540;28;20027;-75
2022/10/10 00:34:57;;;;;;;10.45;3.58;;;;;;;;;;4978877;28;20023;-75
2022/10/10 00:37:23;;;;;;;12.30;4.10;;;;;;;;;;4978721;28;20082;-75
2022/10/10 00:39:49;;;;;;;8.98;3.40;;;;;;;;;;4978780;28;20564;-75
2022/10/10 00:42:16;;;;;;;10.50;3.83;;;;;;;;;;4978926;28;20101;-75
2022/10/10 00:44:43;;;;;;;11.30;3.75;;;;;;;;;;4978722;28;20031;-76
2022/10/10 00:47:09;;;;;;;8.68;3.50;;;;;;;;;;4978520;28;20066;-75
2022/10/10 00:49:38;;;;;;;9.10;3.95;;;;;;;;;;4961238;28;20061;-76
2022/10/10 00:52:05;;;;;;;10.98;3.75;;;;;;;;;;4978964;28;20023;-76
2022/10/10 00:54:32;;;;;;;8.38;2.97;;;;;;;;;;4978668;28;20054;-77
2022/10/10 00:57:00;;;;;;;7.82;3.28;;;;;;;;;;4961548;28;20038;-74
2022/10/10 00:59:26;;;;;;;9.00;3.50;;;;;;;;;;4961549;28;20396;-76
2022/10/10 01:01:52;;;;;;;7.50;4.13;;;;;;;;;;4978851;28;20497;-77
2022/10/10 01:04:35;;;;;;;8.02;3.53;;;;;;;;;;4979256;28;20030;-76
2022/10/10 01:07:03;;;;;;;6.70;3.33;;;;;;;;;;4972133;28;20035;-75
2022/10/10 01:09:29;;;;;;;5.97;2.90;;;;;;;;;;4960992;28;20497;-76
2022/10/10 01:11:58;;;;;;;5.95;2.80;;;;;;;;;;4961757;28;20027;-76
2022/10/10 01:14:24;;;;;;;9.20;3.53;;;;;;;;;;4979012;28;20027;-76
2022/10/10 01:17:13;;;;;;;7.20;3.45;;;;;;;;;;4978484;28;20052;-77
2022/10/10 01:19:58;;;;;;;10.23;3.88;;;;;;;;;;4970849;28;20049;-76
2022/10/10 01:22:24;;;;;;;7.40;3.53;;;;;;;;;;4961479;28;20022;-76
2022/10/10 01:24:56;;;;;;;10.07;3.50;;;;;;;;;;4986999;28;20111;-77
2022/10/10 01:27:26;;;;;;;6.70;3.22;;;;;;;;;;4978667;28;20031;-77
2022/10/10 01:30:01;;;;;;;5.70;3.33;;;;;;;;;;4975962;28;20054;-77
2022/10/10 01:32:33;;;;;;;7.93;3.63;;;;;;;;;;4970099;28;20018;-77
2022/10/10 01:34:59;;;;;;;7.63;3.90;;;;;;;;;;4977784;28;20121;-76
2022/10/10 01:37:38;;;;;;;12.73;3.50;;;;;;;;;;4978242;28;20106;-76
2022/10/10 01:40:25;;;;;;;8.45;3.80;;;;;;;;;;4960140;28;20019;-76
2022/10/10 01:42:53;;;;;;;7.60;3.40;;;;;;;;;;4977981;28;20057;-76
2022/10/10 01:45:20;;;;;;;10.05;3.63;;;;;;;;;;4977279;28;20054;-76
2022/10/10 01:47:46;;;;;;;7.82;3.88;;;;;;;;;;4976102;28;20031;-76
2022/10/10 01:50:14;;;;;;;5.38;2.85;;;;;;;;;;4975744;28;20481;-78
2022/10/10 01:52:43;;;;;;;11.30;3.40;;;;;;;;;;4978539;28;20103;-76
2022/10/10 01:55:16;;;;;;;6.68;3.50;;;;;;;;;;4989850;28;20034;-78
2022/10/10 01:57:54;;;;;;;8.90;3.45;;;;;;;;;;4996330;28;20027;-78
2022/10/10 02:00:20;;;;;;;8.90;3.33;;;;;;;;;;4993871;28;20039;-81
2022/10/10 02:02:46;;;;;;;9.70;3.70;;;;;;;;;;4997376;28;20038;-78
2022/10/10 02:05:15;;;;;;;7.90;3.40;;;;;;;;;;5016725;23;20059;-77
2022/10/10 02:07:41;;;;;;;9.00;3.17;;;;;;;;;;5001945;28;20030;-77
2022/10/10 02:10:08;;;;;;;8.10;3.35;;;;;;;;;;4996400;28;20173;-78
2022/10/10 02:12:35;;;;;;;7.00;3.08;;;;;;;;;;5004763;28;20061;-77
2022/10/10 02:15:08;;;;;;;5.97;3.15;;;;;;;;;;5001818;28;20078;-77
2022/10/10 02:17:35;;;;;;;7.55;2.83;;;;;;;;;;4991271;28;20109;-77
2022/10/10 02:20:01;;;;;;;6.20;2.90;;;;;;;;;;4993478;28;20027;-78
2022/10/10 02:22:28;;;;;;;6.72;2.72;;;;;;;;;;5011413;28;20032;-77
2022/10/10 02:24:54;;;;;;;8.68;3.17;;;;;;;;;;5019174;28;20046;-78
2022/10/10 02:27:28;;;;;;;5.32;3.47;;;;;;;;;;5008531;28;20050;-78
2022/10/10 02:29:56;;;;;;;12.65;4.15;;;;;;;;;;5020695;28;20030;-78
2022/10/10 02:32:31;;;;;;;11.82;3.17;;;;;;;;;;5021683;28;20025;-78
2022/10/10 02:35:00;;;;;;;8.02;3.30;;;;;;;;;;5018805;28;20058;-78
2022/10/10 02:37:27;;;;;;;7.57;2.88;;;;;;;;;;5009060;28;20102;-78
2022/10/10 02:39:55;;;;;;;6.93;2.75;;;;;;;;;;4984651;28;20050;-78
2022/10/10 02:42:22;;;;;;;5.30;2.78;;;;;;;;;;5011619;28;20046;-78
2022/10/10 02:44:48;;;;;;;7.03;3.22;;;;;;;;;;5022869;28;20017;-78
2022/10/10 02:47:14;;;;;;;7.30;3.00;;;;;;;;;;5013150;28;20025;-77
2022/10/10 02:49:40;;;;;;;7.20;2.67;;;;;;;;;;4984930;28;20030;-78
2022/10/10 02:52:06;;;;;;;9.70;3.10;;;;;;;;;;5004400;28;20041;-78
2022/10/10 02:54:32;;;;;;;9.02;2.90;;;;;;;;;;5015331;28;20041;-78
2022/10/10 02:56:58;;;;;;;10.18;2.60;;;;;;;;;;4988148;28;20110;-78
2022/10/10 02:59:24;;;;;;;6.57;3.00;;;;;;;;;;4984675;28;20065;-78
2022/10/10 03:01:50;;;;;;;9.13;3.35;;;;;;;;;;4968671;28;20443;-78
2022/10/10 03:04:16;;;;;;;6.30;2.75;;;;;;;;;;4988116;28;20030;-78
2022/10/10 03:06:42;;;;;;;7.53;2.95;;;;;;;;;;4989329;28;20023;-78
2022/10/10 03:09:08;;;;;;;6.65;2.78;;;;;;;;;;4963120;28;20556;-78
2022/10/10 03:11:34;;;;;;;6.65;3.22;;;;;;;;;;4978589;28;20025;-78
2022/10/10 03:14:00;;;;;;;6.32;2.97;;;;;;;;;;4997405;28;20030;-77
2022/10/10 03:16:26;;;;;;;9.35;2.67;;;;;;;;;;4994975;28;20025;-78
2022/10/10 03:18:52;;;;;;;5.38;2.83;;;;;;;;;;4963572;28;20027;-78
2022/10/10 03:21:18;;;;;;;6.70;3.00;;;;;;;;;;4976264;28;20034;-77
2022/10/10 03:23:44;;;;;;;10.82;3.03;;;;;;;;;;5004999;28;20023;-78
2022/10/10 03:26:10;;;;;;;13.40;3.13;;;;;;;;;;4982422;28;20583;-79
2022/10/10 03:28:37;;;;;;;6.50;2.97;;;;;;;;;;4986088;28;20038;-78
2022/10/10 03:31:03;;;;;;;6.45;2.72;;;;;;;;;;4987874;28;20031;-77
2022/10/10 03:33:29;;;;;;;6.00;2.83;;;;;;;;;;4977021;28;20019;-78
2022/10/10 03:35:55;;;;;;;5.15;2.90;;;;;;;;;;4998781;28;20053;-78
2022/10/10 03:38:21;;;;;;;5.95;2.75;;;;;;;;;;4967807;28;20490;-78
2022/10/10 03:40:47;;;;;;;7.22;2.67;;;;;;;;;;4968130;28;20082;-78
2022/10/10 03:43:16;;;;;;;9.00;2.50;;;;;;;;;;4999086;28;20033;-78
2022/10/10 03:45:43;;;;;;;10.27;2.72;;;;;;;;;;4994888;28;20038;-78
2022/10/10 03:48:09;;;;;;;6.85;2.63;;;;;;;;;;4985675;28;20050;-79
2022/10/10 03:50:35;;;;;;;8.15;2.50;;;;;;;;;;4975060;28;20426;-78
2022/10/10 03:53:01;;;;;;;6.85;3.20;;;;;;;;;;4995356;28;20395;-78
2022/10/10 03:55:27;;;;;;;13.15;3.47;;;;;;;;;;4990088;28;20499;-78
2022/10/10 03:57:53;;;;;;;9.23;2.67;;;;;;;;;;4971774;28;20439;-77
2022/10/10 04:00:19;;;;;;;6.93;2.78;;;;;;;;;;4956684;28;20057;-79
2022/10/10 04:02:45;;;;;;;6.45;3.15;;;;;;;;;;4994769;28;20037;-78
2022/10/10 04:05:12;;;;;;;8.63;2.72;;;;;;;;;;4990633;28;20030;-78
2022/10/10 04:07:40;;;;;;;6.72;2.60;;;;;;;;;;4986561;28;20507;-78
2022/10/10 04:10:06;;;;;;;5.45;2.60;;;;;;;;;;4975272;28;20034;-78
2022/10/10 04:12:32;;;;;;;7.25;2.78;;;;;;;;;;4990725;28;20073;-77
2022/10/10 04:14:58;;;;;;;4.05;2.58;;;;;;;;;;4975681;28;20074;-78
2022/10/10 04:17:24;;;;;;;7.35;2.83;;;;;;;;;;4967120;28;20030;-76
2022/10/10 04:19:50;;;;;;;3.58;2.35;;;;;;;;;;4981039;28;20515;-78
2022/10/10 04:22:16;;;;;;;6.57;3.17;;;;;;;;;;4970605;28;20030;-78
2022/10/10 04:24:43;;;;;;;25.05;3.88;;;;;;;;;;4998682;28;20037;-78
2022/10/10 04:27:09;;;;;;;7.20;2.97;;;;;;;;;;4984251;28;20027;-78
2022/10/10 04:29:35;;;;;;;5.90;3.58;;;;;;;;;;4979297;28;20034;-78
2022/10/10 04:32:01;;;;;;;10.18;4.53;;;;;;;;;;4994533;28;20028;-78
2022/10/10 04:34:27;;;;;;;8.43;4.22;;;;;;;;;;5002369;28;20022;-78
2022/10/10 04:36:53;;;;;;;8.15;3.40;;;;;;;;;;4984603;28;20034;-78
2022/10/10 04:39:19;;;;;;;6.15;3.60;;;;;;;;;;4979544;28;20038;-78
2022/10/10 04:41:49;;;;;;;6.70;3.25;;;;;;;;;;4964004;28;20022;-78
2022/10/10 04:44:15;;;;;;;4.80;3.03;;;;;;;;;;5007478;28;20038;-78
2022/10/10 04:46:41;;;;;;;10.80;3.42;;;;;;;;;;5002844;28;20037;-78
2022/10/10 04:49:07;;;;;;;7.30;3.13;;;;;;;;;;4967219;28;20094;-78
2022/10/10 04:51:33;;;;;;;6.97;3.40;;;;;;;;;;4982060;28;20082;-79
2022/10/10 04:53:59;;;;;;;6.03;3.78;;;;;;;;;;5013209;28;20030;-78
2022/10/10 04:56:26;;;;;;;7.57;2.92;;;;;;;;;;4994656;28;20037;-77
2022/10/10 04:58:53;;;;;;;9.98;4.30;;;;;;;;;;4979815;28;20066;-78
2022/10/10 05:01:19;;;;;;;6.72;2.90;;;;;;;;;;4987250;28;20034;-78
2022/10/10 05:03:45;;;;;;;10.32;3.50;;;;;;;;;;5005753;28;20015;-78
2022/10/10 05:06:11;;;;;;;6.75;3.03;;;;;;;;;;4995348;28;20026;-78
2022/10/10 05:08:37;;;;;;;7.18;3.90;;;;;;;;;;4981065;28;20057;-79
2022/10/10 05:11:03;;;;;;;7.32;3.20;;;;;;;;;;4972726;28;20098;-76
2022/10/10 05:13:29;;;;;;;7.78;3.10;;;;;;;;;;4977340;28;20109;-78
2022/10/10 05:15:55;;;;;;;8.07;3.55;;;;;;;;;;4978381;28;20076;-78
2022/10/10 05:18:21;;;;;;;9.93;3.55;;;;;;;;;;4964071;28;20450;-78
2022/10/10 05:20:47;;;;;;;8.80;3.47;;;;;;;;;;4976654;28;20437;-78
2022/10/10 05:23:14;;;;;;;8.90;4.18;;;;;;;;;;4998066;28;20029;-78
2022/10/10 05:25:43;;;;;;;6.03;3.45;;;;;;;;;;4996895;28;20022;-78
2022/10/10 05:28:09;;;;;;;8.30;3.85;;;;;;;;;;4970584;28;20030;-77
2022/10/10 05:30:34;;;;;;;9.05;3.83;;;;;;;;;;4983978;28;20495;-77
2022/10/10 05:33:00;;;;;;;7.03;4.05;;;;;;;;;;5002878;28;20022;-77
2022/10/10 05:35:26;;;;;;;16.17;3.97;;;;;;;;;;5001379;28;20026;-77
2022/10/10 05:37:52;;;;;;;5.50;3.40;;;;;;;;;;4987203;28;20032;-78
2022/10/10 05:40:18;;;;;;;7.30;3.25;;;;;;;;;;4977697;28;20485;-78
2022/10/10 05:42:44;;;;;;;7.75;3.10;;;;;;;;;;4998645;28;20109;-78
2022/10/10 05:45:10;;;;;;;6.47;3.70;;;;;;;;;;4994273;28;20035;-78
2022/10/10 05:47:36;;;;;;;6.57;3.13;;;;;;;;;;4969867;28;20034;-78
2022/10/10 05:50:03;;;;;;;12.65;3.20;;;;;;;;;;4979497;28;20119;-78
2022/10/10 05:52:30;;;;;;;6.57;2.92;;;;;;;;;;4976709;28;20065;-78
2022/10/10 05:54:56;;;;;;;6.45;2.95;;;;;;;;;;4992271;28;20477;-78
2022/10/10 05:57:21;;;;;;;7.68;3.33;;;;;;;;;;4987046;28;20085;-78
2022/10/10 05:59:47;;;;;;;9.80;3.15;;;;;;;;;;4982282;28;20445;-77
2022/10/10 06:02:14;;;;;;;6.35;3.25;;;;;;;;;;5001827;28;20049;-78
2022/10/10 06:04:40;;;;;;;6.75;2.88;;;;;;;;;;5014050;28;20044;-78
2022/10/10 06:07:06;;;;;;;10.63;2.53;;;;;;;;;;4997316;28;20035;-77
2022/10/10 06:09:32;;;;;;;6.47;2.80;;;;;;;;;;4989495;28;20458;-78
2022/10/10 06:12:00;;;;;;;7.05;2.78;;;;;;;;;;4989453;28;20025;-78
2022/10/10 06:14:26;;;;;;;9.48;3.05;;;;;;;;;;5006320;28;20025;-78
2022/10/10 06:16:52;;;;;;;4.03;2.67;;;;;;;;;;4986592;28;20404;-79
2022/10/10 06:19:18;;;;;;;9.15;3.65;;;;;;;;;;4963904;28;20027;-79
2022/10/10 06:21:44;;;;;;;8.27;3.45;;;;;;;;;;4980414;28;20097;-79
2022/10/10 06:24:10;;;;;;;7.97;3.67;;;;;;;;;;5004055;28;20464;-78
2022/10/10 06:26:36;;;;;;;8.57;3.60;;;;;;;;;;4973432;28;20031;-78
2022/10/10 06:29:02;;;;;;;5.55;2.95;;;;;;;;;;4986704;28;20480;-78
2022/10/10 06:31:28;;;;;;;6.57;2.97;;;;;;;;;;4958982;28;20038;-71
2022/10/10 06:33:54;;;;;;;6.93;3.20;;;;;;;;;;4983933;28;20393;-74
2022/10/10 06:36:20;;;;;;;7.63;3.75;;;;;;;;;;4973380;28;20023;-74
2022/10/10 06:38:46;;;;;;;7.50;3.65;;;;;;;;;;4973031;28;20474;-74
2022/10/10 06:41:12;;;;;;;9.63;4.05;;;;;;;;;;4974422;28;20023;-74
2022/10/10 06:43:41;;;;;;;7.03;3.58;;;;;;;;;;4957246;28;20090;-79
2022/10/10 06:46:09;;;;;;;8.25;4.03;;;;;;;;;;4975338;28;20462;-79
2022/10/10 06:48:35;;;;;;;13.40;4.50;;;;;;;;;;4964155;28;20035;-79
2022/10/10 06:51:05;;;;;;;10.13;4.43;;;;;;;;;;4955442;28;20027;-79
2022/10/10 06:53:32;;;;;;;10.75;4.47;;;;;;;;;;4972601;28;20473;-79
2022/10/10 06:55:58;;;;;;;8.55;3.10;;;;;;;;;;4972923;28;20023;-79
2022/10/10 06:58:25;;;;;;;7.93;2.90;;;;;;;;;;4958194;28;20037;-79
2022/10/10 07:00:52;;;;;;;13.60;3.90;;;;;;;;;;4984401;28;20085;-78
2022/10/10 07:03:19;;;;;;;11.77;3.63;;;;;;;;;;4975547;28;20049;-78
2022/10/10 07:05:48;;;;;;;7.38;3.33;;;;;;;;;;4975921;28;20035;-79
2022/10/10 07:08:14;;;;;;;9.43;3.17;;;;;;;;;;4989494;28;20023;-79
2022/10/10 07:10:40;;;;;;;10.45;3.13;;;;;;;;;;4975961;28;20097;-79
2022/10/10 07:13:06;;;;;;;6.18;3.00;;;;;;;;;;4978235;28;20537;-79
2022/10/10 07:15:35;;;;;;;8.90;3.15;;;;;;;;;;4978292;28;20027;-78
2022/10/10 07:18:01;;;;;;;9.50;3.58;;;;;;;;;;4974306;28;20019;-77
2022/10/10 07:20:27;;;;;;;4.82;2.50;;;;;;;;;;4974086;28;20034;-77
2022/10/10 07:22:53;;;;;;;7.93;3.20;;;;;;;;;;4973807;28;20030;-77
2022/10/10 07:25:28;;;;;;;7.68;3.45;;;;;;;;;;4980891;23;20094;-78
2022/10/10 07:27:55;;;;;;;14.95;4.35;;;;;;;;;;4955808;28;20448;-78
2022/10/10 07:30:21;;;;;;;7.80;4.63;;;;;;;;;;4973561;28;20045;-78
2022/10/10 07:32:50;;;;;;;11.18;4.32;;;;;;;;;;4973544;28;20065;-77
2022/10/10 07:35:17;;;;;;;10.35;4.88;;;;;;;;;;4940538;28;20396;-80
2022/10/10 07:37:43;;;;;;;7.30;4.25;;;;;;;;;;4971931;28;20023;-79
2022/10/10 07:40:10;;;;;;;7.93;3.95;;;;;;;;;;5002351;23;20101;-76
2022/10/10 07:42:36;;;;;;;11.15;3.92;;;;;;;;;;4994059;28;20015;-79
2022/10/10 07:45:02;;;;;;;8.77;3.83;;;;;;;;;;4995429;28;20046;-77
2022/10/10 07:47:28;;;;;;;11.13;4.30;;;;;;;;;;4982373;28;20124;-77
2022/10/10 07:49:54;;;;;;;6.85;3.58;;;;;;;;;;4972902;28;20045;-77
2022/10/10 07:52:20;;;;;;;8.68;4.93;;;;;;;;;;4973664;28;20115;-75
2022/10/10 07:54:46;;;;;;;14.40;4.18;;;;;;;;;;4974612;28;20034;-77
2022/10/10 07:57:12;;;;;;;7.40;3.80;;;;;;;;;;4973902;28;20488;-78
2022/10/10 07:59:39;;;;;;;7.43;4.13;;;;;;;;;;4972906;28;20154;-76
2022/10/10 08:02:05;;;;;;;7.68;3.70;;;;;;;;;;4973365;28;20038;-76
2022/10/10 08:04:31;;;;;;;7.60;3.50;;;;;;;;;;4972937;28;20496;-77
2022/10/10 08:06:57;;;;;;;6.95;3.72;;;;;;;;;;4973348;28;20117;-78
2022/10/10 08:09:23;;;;;;;8.85;3.60;;;;;;;;;;4973364;28;20074;-77
2022/10/10 08:11:49;;;;;;;8.50;4.10;;;;;;;;;;4971809;28;20097;-77
2022/10/10 08:14:15;;;;;;;11.90;4.30;;;;;;;;;;4971264;28;20193;-78
2022/10/10 08:16:41;;;;;;;13.43;4.15;;;;;;;;;;4971789;28;20015;-78
2022/10/10 08:19:08;;;;;;;10.25;4.15;;;;;;;;;;4953709;28;20594;-78
2022/10/10 08:21:35;;;;;;;7.90;4.30;;;;;;;;;;4971423;28;20019;-79
2022/10/10 08:24:01;;;;;;;12.20;3.92;;;;;;;;;;4954024;28;20030;-77
2022/10/10 08:26:27;;;;;;;9.65;4.78;;;;;;;;;;4972061;28;20106;-77
2022/10/10 08:28:53;;;;;;;9.30;4.07;;;;;;;;;;4972262;28;20421;-77
2022/10/10 08:31:21;;;;;;;9.88;4.32;;;;;;;;;;4974257;28;20109;-78
2022/10/10 08:33:47;;;;;;;9.23;4.38;;;;;;;;;;4975018;28;20454;-78
2022/10/10 08:36:16;;;;;;;17.58;4.38;;;;;;;;;;4956635;28;20026;-79
2022/10/10 08:38:42;;;;;;;9.90;4.57;;;;;;;;;;4973793;28;20022;-78
2022/10/10 08:41:20;;;;;;;14.85;4.65;;;;;;;;;;4973852;28;20030;-78
2022/10/10 08:43:50;;;;;;;11.10;4.88;;;;;;;;;;4974331;28;20019;-79
2022/10/10 08:46:30;;;;;;;9.15;3.83;;;;;;;;;;4974322;28;20026;-78
2022/10/10 08:48:58;;;;;;;8.35;3.65;;;;;;;;;;4974798;28;20504;-79
2022/10/10 08:51:26;;;;;;;10.65;4.22;;;;;;;;;;4974597;28;20055;-78
2022/10/10 08:53:55;;;;;;;13.85;3.53;;;;;;;;;;4973188;28;20050;-78
2022/10/10 08:56:25;;;;;;;9.65;3.40;;;;;;;;;;4976485;28;20437;-77
2022/10/10 08:58:57;;;;;;;10.07;3.70;;;;;;;;;;4976407;28;20477;-77
2022/10/10 09:01:27;;;;;;;6.32;3.72;;;;;;;;;;4976563;28;20038;-78
2022/10/10 09:03:54;;;;;;;9.00;3.60;;;;;;;;;;4977101;28;20049;-78
2022/10/10 09:06:26;;;;;;;8.50;3.03;;;;;;;;;;4976539;28;20552;-77
2022/10/10 09:09:12;;;;;;;7.18;2.85;;;;;;;;;;4976923;28;20023;-78
2022/10/10 09:11:47;;;;;;;6.38;2.75;;;;;;;;;;4977396;28;20023;-78
2022/10/10 09:14:31;;;;;;;7.07;2.85;;;;;;;;;;4961248;28;20033;-78
2022/10/10 09:17:16;;;;;;;5.80;2.72;;;;;;;;;;4984208;28;20027;-79
2022/10/10 09:20:01;;;;;;;8.05;2.65;;;;;;;;;;4996480;28;20035;-77
2022/10/10 09:22:30;;;;;;;7.05;2.53;;;;;;;;;;4996777;28;20050;-76
2022/10/10 09:24:58;;;;;;;3.60;1.98;;;;;;;;;;4978412;28;20042;-78
2022/10/10 09:27:27;;;;;;;3.33;2.20;;;;;;;;;;4993049;28;20072;-78
2022/10/10 09:29:56;;;;;;;5.53;2.28;;;;;;;;;;4978915;28;20031;-77
2022/10/10 09:32:27;;;;;;;3.65;2.03;;;;;;;;;;4976310;28;20027;-78
2022/10/10 09:34:53;;;;;;;;;;;;;;;;;;4976241;28;20019;-75
2022/10/10 09:37:21;;;;;;;5.18;2.10;;;;;;;;;;4975484;28;20392;-76
2022/10/10 09:39:59;;;;;;;6.68;2.22;;;;;;;;;;4975795;28;20039;-76
2022/10/10 09:42:31;;;;;;;3.00;1.90;;;;;;;;;;4974465;28;20019;-78
2022/10/10 09:44:57;;;;;;;7.63;2.25;;;;;;;;;;4956770;28;20023;-78
2022/10/10 09:47:23;;;;;;;6.63;2.10;;;;;;;;;;4956399;28;20037;-77
2022/10/10 09:49:49;;;;;;;8.30;2.65;;;;;;;;;;4974276;28;20110;-75
2022/10/10 09:52:24;;;;;;;3.85;2.40;;;;;;;;;;4957914;28;20034;-77
2022/10/10 09:54:52;;;;;;;4.10;2.50;;;;;;;;;;4975289;28;20019;-78
2022/10/10 09:57:22;;;;;;;6.63;2.53;;;;;;;;;;4975426;28;20030;-78
2022/10/10 09:59:48;;;;;;;3.80;2.20;;;;;;;;;;4975306;28;20041;-77
2022/10/10 10:02:17;;;;;;;12.23;2.72;;;;;;;;;;4975654;28;20054;-77
2022/10/10 10:04:43;;;;;;;4.85;2.30;;;;;;;;;;4975626;28;20026;-78
2022/10/10 10:07:19;;;;;;;5.97;2.25;;;;;;;;;;4974368;28;20030;-76
2022/10/10 10:09:52;;;;;;;5.72;2.53;;;;;;;;;;4975073;28;20023;-77
2022/10/10 10:12:20;;;;;;;5.85;2.63;;;;;;;;;;4975422;28;20130;-77
2022/10/10 10:14:46;;;;;;;4.90;2.30;;;;;;;;;;4975188;28;20549;-78
2022/10/10 10:17:14;;;;;;;4.93;2.22;;;;;;;;;;4958012;28;20038;-75
2022/10/10 10:19:41;;;;;;;3.88;2.25;;;;;;;;;;4974849;28;20117;-76
2022/10/10 10:22:26;;;;;;;5.50;2.67;;;;;;;;;;4975198;28;20074;-76
2022/10/10 10:24:52;;;;;;;5.85;2.22;;;;;;;;;;4957804;28;20030;-77
2022/10/10 10:27:20;;;;;;;5.88;2.30;;;;;;;;;;4974694;28;20081;-77
2022/10/10 10:29:47;;;;;;;9.13;3.08;;;;;;;;;;4974603;28;20077;-77
2022/10/10 10:32:31;;;;;;;5.85;2.38;;;;;;;;;;4975052;28;20023;-77
2022/10/10 10:34:57;;;;;;;8.02;2.50;;;;;;;;;;4974707;28;20030;-78
2022/10/10 10:37:25;;;;;;;7.78;2.42;;;;;;;;;;4974606;28;20394;-78
2022/10/10 10:40:10;;;;;;;4.97;2.22;;;;;;;;;;4974689;28;20031;-78
2022/10/10 10:43:05;;;;;;;6.63;2.33;;;;;;;;;;4974939;28;20058;-76
2022/10/10 10:45:40;;;;;;;5.47;2.55;;;;;;;;;;4954926;28;20049;-77
2022/10/10 10:48:15;;;;;;;7.70;2.95;;;;;;;;;;4957093;28;20022;-77
2022/10/10 10:50:53;;;;;;;4.65;2.20;;;;;;;;;;4974579;28;20113;-77
2022/10/10 10:53:28;;;;;;;7.72;2.17;;;;;;;;;;4974118;28;20062;-75
2022/10/10 10:56:04;;;;;;;4.95;2.58;;;;;;;;;;4974697;28;20129;-77
2022/10/10 10:58:35;;;;;;;5.15;2.22;;;;;;;;;;4974021;28;20027;-76
2022/10/10 11:01:04;;;;;;;4.47;2.25;;;;;;;;;;4973184;28;20489;-77
2022/10/10 11:03:32;;;;;;;5.82;2.22;;;;;;;;;;4973892;28;20027;-77
2022/10/10 11:06:02;;;;;;;4.78;2.58;;;;;;;;;;4974433;28;20026;-77
2022/10/10 11:08:28;;;;;;;9.57;2.70;;;;;;;;;;4973712;28;20050;-77
2022/10/10 11:11:00;;;;;;;7.43;2.55;;;;;;;;;;4973794;28;20466;-77
2022/10/10 11:13:32;;;;;;;5.80;2.03;;;;;;;;;;4974184;28;20015;-77
2022/10/10 11:16:13;;;;;;;3.58;2.00;;;;;;;;;;4974209;28;20019;-77
2022/10/10 11:18:45;;;;;;;6.80;2.65;;;;;;;;;;4961211;28;20027;-77
2022/10/10 11:21:16;;;;;;;7.63;2.95;;;;;;;;;;4974070;28;20094;-76
2022/10/10 11:23:45;;;;;;;7.75;2.97;;;;;;;;;;4974383;28;20031;-77
2022/10/10 11:26:26;;;;;;;7.22;2.50;;;;;;;;;;4973778;28;20042;-77
2022/10/10 11:29:13;;;;;;;3.90;2.30;;;;;;;;;;4972962;28;20400;-77
2022/10/10 11:31:42;;;;;;;6.07;3.30;;;;;;;;;;4973325;28;20110;-74
2022/10/10 11:34:23;;;;;;;10.65;2.88;;;;;;;;;;4973183;28;20093;-76
2022/10/10 11:36:51;;;;;;;8.50;2.17;;;;;;;;;;4973718;28;20106;-76
2022/10/10 11:39:17;;;;;;;4.20;2.50;;;;;;;;;;4973090;28;20038;-77
2022/10/10 11:41:53;;;;;;;8.98;2.92;;;;;;;;;;4973445;28;20039;-76
2022/10/10 11:44:41;;;;;;;10.20;3.05;;;;;;;;;;4973581;28;20034;-77
2022/10/10 11:47:13;;;;;;;7.05;2.67;;;;;;;;;;4961809;28;20026;-75
2022/10/10 11:49:53;;;;;;;5.20;2.50;;;;;;;;;;4973053;28;20450;-76
2022/10/10 11:52:38;;;;;;;9.48;3.03;;;;;;;;;;4973732;28;20077;-77
2022/10/10 11:55:10;;;;;;;5.95;2.85;;;;;;;;;;4973594;28;20027;-77
2022/10/10 11:57:40;;;;;;;12.70;3.58;;;;;;;;;;4955664;28;20023;-78
2022/10/10 12:00:10;;;;;;;6.00;2.53;;;;;;;;;;4973476;28;20106;-76
2022/10/10 12:02:39;;;;;;;6.93;2.97;;;;;;;;;;4956878;28;20103;-77
2022/10/10 12:05:06;;;;;;;4.47;2.70;;;;;;;;;;4956417;28;20485;-78
2022/10/10 12:07:37;;;;;;;5.30;3.20;;;;;;;;;;4973992;28;20049;-77
2022/10/10 12:10:26;;;;;;;6.97;2.83;;;;;;;;;;4956159;28;20038;-77
2022/10/10 12:12:54;;;;;;;4.97;2.88;;;;;;;;;;4973818;28;20034;-78
2022/10/10 12:15:32;;;;;;;11.55;3.70;;;;;;;;;;4954574;28;20449;-77
2022/10/10 12:17:58;;;;;;;8.57;3.42;;;;;;;;;;4972507;28;20461;-76
2022/10/10 12:20:25;;;;;;;9.88;3.38;;;;;;;;;;4970807;28;20089;-77
2022/10/10 12:23:10;;;;;;;5.38;3.33;;;;;;;;;;4971305;28;20629;-72
2022/10/10 12:25:41;;;;;;;6.72;3.20;;;;;;;;;;4971171;28;20030;-75
2022/10/10 12:28:12;;;;;;;5.15;2.70;;;;;;;;;;4970878;28;20397;-77
2022/10/10 12:30:57;;;;;;;4.53;2.97;;;;;;;;;;4971265;28;20027;-76
2022/10/10 12:33:26;;;;;;;9.25;3.38;;;;;;;;;;4973384;28;20077;-76
2022/10/10 12:35:53;;;;;;;8.63;3.08;;;;;;;;;;4954704;28;20027;-75
2022/10/10 12:38:20;;;;;;;12.10;3.33;;;;;;;;;;4979929;28;20490;-77
2022/10/10 12:41:05;;;;;;;8.95;3.63;;;;;;;;;;4973223;28;20069;-76
2022/10/10 12:43:41;;;;;;;6.65;3.13;;;;;;;;;;4955048;28;20560;-77
2022/10/10 12:46:18;;;;;;;8.50;3.17;;;;;;;;;;4970796;28;20252;-77
2022/10/10 12:48:44;;;;;;;9.60;3.10;;;;;;;;;;4970428;28;20110;-77
2022/10/10 12:51:21;;;;;;;6.88;3.03;;;;;;;;;;4970278;28;20034;-76
2022/10/10 12:53:49;;;;;;;7.65;3.45;;;;;;;;;;4970796;28;20466;-76
2022/10/10 12:56:15;;;;;;;4.70;2.50;;;;;;;;;;4971391;28;20019;-77
2022/10/10 12:58:42;;;;;;;10.55;2.90;;;;;;;;;;4971033;28;20493;-77
2022/10/10 13:01:18;;;;;;;9.60;3.50;;;;;;;;;;4972326;28;20027;-76
2022/10/10 13:03:45;;;;;;;10.95;3.15;;;;;;;;;;4972947;28;20018;-76
2022/10/10 13:06:20;;;;;;;12.98;3.72;;;;;;;;;;4976829;28;20026;-78
2022/10/10 13:08:47;;;;;;;5.68;2.90;;;;;;;;;;4985198;28;20031;-77
2022/10/10 13:11:14;;;;;;;6.90;3.50;;;;;;;;;;4986767;28;20087;-74
2022/10/10 13:13:48;;;;;;;11.30;3.50;;;;;;;;;;4973213;28;20023;-76
2022/10/10 13:16:15;;;;;;;7.07;3.22;;;;;;;;;;4972442;28;20030;-79
2022/10/10 13:18:48;;;;;;;10.77;3.33;;;;;;;;;;4972683;28;20078;-78
2022/10/10 13:21:14;;;;;;;9.05;2.92;;;;;;;;;;4955140;28;20030;-78
2022/10/10 13:23:41;;;;;;;10.13;4.13;;;;;;;;;;4972489;28;20054;-77
2022/10/10 13:26:19;;;;;;;10.85;3.10;;;;;;;;;;4972627;28;20034;-76
2022/10/10 13:28:45;;;;;;;7.75;3.60;;;;;;;;;;4971688;28;20030;-76
2022/10/10 13:31:13;;;;;;;6.80;3.33;;;;;;;;;;4972763;28;20027;-77
2022/10/10 13:33:40;;;;;;;6.75;3.20;;;;;;;;;;4972606;28;20437;-77
2022/10/10 13:36:07;;;;;;;9.75;3.28;;;;;;;;;;4972078;28;20015;-77
2022/10/10 13:38:34;;;;;;;7.47;3.20;;;;;;;;;;4971912;28;20026;-77
2022/10/10 13:41:01;;;;;;;10.10;3.17;;;;;;;;;;4975340;28;20404;-76
2022/10/10 13:43:27;;;;;;;10.40;3.42;;;;;;;;;;4975445;28;20027;-77
2022/10/10 13:45:57;;;;;;;12.77;3.78;;;;;;;;;;4976022;28;20027;-76
2022/10/10 13:48:26;;;;;;;7.30;3.30;;;;;;;;;;4957964;28;20471;-77
2022/10/10 13:51:04;;;;;;;12.55;4.18;;;;;;;;;;4975574;28;20069;-76
2022/10/10 13:53:32;;;;;;;7.57;3.38;;;;;;;;;;4958203;28;20023;-78
2022/10/10 13:56:01;;;;;;;12.25;4.55;;;;;;;;;;4975583;28;20046;-77
2022/10/10 13:58:31;;;;;;;10.57;3.47;;;;;;;;;;4975291;28;20081;-77
2022/10/10 14:00:58;;;;;;;8.40;2.95;;;;;;;;;;4975682;28;20034;-76
2022/10/10 14:03:24;;;;;;;12.63;3.75;;;;;;;;;;4975407;28;20027;-76
2022/10/10 14:05:50;;;;;;;7.55;3.00;;;;;;;;;;4975456;28;20509;-77
2022/10/10 14:08:21;;;;;;;11.02;3.80;;;;;;;;;;4974991;28;20022;-76
2022/10/10 14:11:05;;;;;;;8.25;2.88;;;;;;;;;;4958033;28;20030;-76
2022/10/10 14:13:32;;;;;;;7.82;3.13;;;;;;;;;;4975035;28;20022;-77
2022/10/10 14:16:21;;;;;;;10.15;3.20;;;;;;;;;;4975255;28;20505;-77
2022/10/10 14:18:47;;;;;;;11.93;3.35;;;;;;;;;;4958015;28;20065;-76
2022/10/10 14:21:14;;;;;;;8.38;2.92;;;;;;;;;;4975125;28;20027;-76
2022/10/10 14:23:40;;;;;;;8.48;2.70;;;;;;;;;;4975395;28;20053;-75
2022/10/10 14:26:07;;;;;;;7.85;2.58;;;;;;;;;;4974895;28;20030;-77
2022/10/10 14:28:33;;;;;;;11.65;3.80;;;;;;;;;;4974633;28;20027;-77
2022/10/10 14:30:59;;;;;;;7.18;3.53;;;;;;;;;;4975050;28;20054;-73
2022/10/10 14:33:26;;;;;;;12.80;3.10;;;;;;;;;;4974841;28;20038;-76
2022/10/10 14:35:53;;;;;;;6.50;3.05;;;;;;;;;;4975023;28;20023;-76
2022/10/10 14:38:19;;;;;;;8.43;3.65;;;;;;;;;;4974691;28;20051;-78
2022/10/10 14:40:48;;;;;;;6.47;3.20;;;;;;;;;;4974644;28;20038;-77
2022/10/10 14:43:15;;;;;;;5.45;3.22;;;;;;;;;;4975292;28;20037;-78
2022/10/10 14:45:41;;;;;;;7.15;2.80;;;;;;;;;;4981340;28;20433;-77
2022/10/10 14:48:07;;;;;;;7.05;3.05;;;;;;;;;;4974204;28;20033;-76
2022/10/10 14:50:37;;;;;;;13.63;3.38;;;;;;;;;;4974598;28;20027;-77